createdAt,value
2022-11-30T04:34:29.428Z,3.53
2022-11-30T04:49:33.879Z,2.90
2022-11-30T05:04:38.312Z,3.73
2022-11-30T05:19:42.930Z,3.73
2022-11-30T05:34:51.145Z,4.00
2022-11-30T05:49:56.227Z,2.87
2022-11-30T06:05:00.680Z,5.13
2022-11-30T06:20:05.403Z,6.70
2022-11-30T06:35:10.393Z,6.77
2022-11-30T06:50:15.442Z,7.27
2022-11-30T07:05:19.996Z,7.93
2022-11-30T07:20:24.398Z,8.03
2022-11-30T07:35:28.822Z,8.10
2022-11-30T07:50:33.190Z,10.97
2022-11-30T08:05:37.631Z,10.23
2022-11-30T08:20:46.950Z,11.67
2022-11-30T08:35:54.213Z,12.70
2022-11-30T08:51:02.500Z,12.10
2022-11-30T09:06:09.202Z,14.20
2022-11-30T09:21:15.448Z,13.73
2022-11-30T09:36:21.262Z,13.80
2022-11-30T09:51:30.913Z,14.80
2022-11-30T10:06:43.052Z,15.33
2022-11-30T10:22:02.096Z,15.17
2022-11-30T10:37:16.116Z,12.50
2022-11-30T10:52:26.094Z,15.47
2022-11-30T11:07:32.599Z,17.57
2022-11-30T11:22:38.803Z,17.43
2022-11-30T11:37:52.744Z,17.13
2022-11-30T11:53:22.709Z,14.07
2022-11-30T12:08:37.823Z,17.20
2022-11-30T12:23:58.304Z,17.37
2022-11-30T12:39:09.120Z,19.03
2022-11-30T12:54:22.622Z,16.63
2022-11-30T13:09:34.142Z,16.27
2022-11-30T13:24:42.648Z,17.50
2022-11-30T13:39:49.997Z,17.53
2022-11-30T13:54:55.539Z,16.43
2022-11-30T14:10:00.998Z,16.87
2022-11-30T14:25:12.748Z,18.40
2022-11-30T14:40:19.913Z,18.27
2022-11-30T14:55:32.895Z,16.50
2022-11-30T15:10:37.362Z,20.03
2022-11-30T15:25:46.284Z,19.30
2022-11-30T15:40:55.243Z,21.67
2022-11-30T15:56:06.969Z,24.20
2022-11-30T16:11:12.415Z,23.87
2022-11-30T16:41:43.436Z,26.10
2022-11-30T16:56:47.899Z,27.30
2022-11-30T17:11:52.751Z,28.80
2022-11-30T17:26:57.080Z,28.30
2022-11-30T17:42:01.506Z,30.27
2022-11-30T17:57:05.927Z,30.30
2022-11-30T18:12:10.615Z,28.07
2022-11-30T18:27:15.051Z,28.90
2022-11-30T18:42:20.597Z,29.70
2022-11-30T18:57:24.968Z,31.50
2022-11-30T19:12:29.863Z,28.53
2022-11-30T19:27:35.923Z,29.00
2022-11-30T19:42:40.419Z,29.23
2022-11-30T19:57:44.763Z,30.87
2022-11-30T20:12:49.311Z,32.70
2022-11-30T20:27:54.474Z,34.50
2022-11-30T20:42:59.082Z,35.93
2022-11-30T20:58:03.644Z,36.83
2022-11-30T21:13:08.768Z,37.80
